sensor_id;sensor_type;location;lat;lon;timestamp;temperature;humidity
14049;DHT22;7099;53.922;10.728;2022-12-24T00:00:42;5.00;99.90
14049;DHT22;7099;53.922;10.728;2022-12-24T00:04:47;5.00;99.90
14049;DHT22;7099;53.922;10.728;2022-12-24T00:08:53;5.00;99.90
14049;DHT22;7099;53.922;10.728;2022-12-24T00:12:58;5.00;99.90
14049;DHT22;7099;53.922;10.728;2022-12-24T00:17:04;5.00;99.90
14049;DHT22;7099;53.922;10.728;2022-12-24T00:21:10;5.10;99.90
14049;DHT22;7099;53.922;10.728;2022-12-24T00:25:15;5.10;99.90
14049;DHT22;7099;53.922;10.728;2022-12-24T00:29:20;5.00;99.90
14049;DHT22;7099;53.922;10.728;2022-12-24T00:33:26;5.00;99.90
14049;DHT22;7099;53.922;10.728;2022-12-24T00:37:32;5.00;99.90
14049;DHT22;7099;53.922;10.728;2022-12-24T00:41:38;5.00;99.90
14049;DHT22;7099;53.922;10.728;2022-12-24T00:45:43;5.00;99.90
14049;DHT22;7099;53.922;10.728;2022-12-24T00:49:49;5.00;99.90
14049;DHT22;7099;53.922;10.728;2022-12-24T00:53:55;5.00;99.90
14049;DHT22;7099;53.922;10.728;2022-12-24T00:58:00;5.00;99.90
14049;DHT22;7099;53.922;10.728;2022-12-24T01:02:06;5.10;99.90
14049;DHT22;7099;53.922;10.728;2022-12-24T01:06:17;5.10;99.90
14049;DHT22;7099;53.922;10.728;2022-12-24T01:10:24;5.10;99.90
14049;DHT22;7099;53.922;10.728;2022-12-24T01:14:29;5.10;99.90
14049;DHT22;7099;53.922;10.728;2022-12-24T01:18:35;5.10;99.90
14049;DHT22;7099;53.922;10.728;2022-12-24T01:22:40;5.10;99.90
14049;DHT22;7099;53.922;10.728;2022-12-24T01:26:46;5.10;99.90
14049;DHT22;7099;53.922;10.728;2022-12-24T01:30:52;5.10;99.90
14049;DHT22;7099;53.922;10.728;2022-12-24T01:34:57;5.10;99.90
14049;DHT22;7099;53.922;10.728;2022-12-24T01:39:04;5.10;99.90
14049;DHT22;7099;53.922;10.728;2022-12-24T01:43:17;5.10;99.90
14049;DHT22;7099;53.922;10.728;2022-12-24T01:47:32;5.10;99.90
14049;DHT22;7099;53.922;10.728;2022-12-24T01:55:59;5.10;99.90
14049;DHT22;7099;53.922;10.728;2022-12-24T02:00:09;5.20;99.90
14049;DHT22;7099;53.922;10.728;2022-12-24T02:09:06;5.20;99.90
14049;DHT22;7099;53.922;10.728;2022-12-24T02:13:14;5.20;99.90
14049;DHT22;7099;53.922;10.728;2022-12-24T02:22:00;5.10;99.90
14049;DHT22;7099;53.922;10.728;2022-12-24T02:30:51;5.10;99.90
14049;DHT22;7099;53.922;10.728;2022-12-24T02:40:03;5.20;99.90
14049;DHT22;7099;53.922;10.728;2022-12-24T02:44:46;5.20;99.90
14049;DHT22;7099;53.922;10.728;2022-12-24T02:48:58;5.10;99.90
14049;DHT22;7099;53.922;10.728;2022-12-24T02:53:05;5.20;99.90
14049;DHT22;7099;53.922;10.728;2022-12-24T02:57:36;5.20;99.90
14049;DHT22;7099;53.922;10.728;2022-12-24T03:06:22;5.20;99.90
14049;DHT22;7099;53.922;10.728;2022-12-24T03:10:51;5.20;99.90
14049;DHT22;7099;53.922;10.728;2022-12-24T03:15:00;5.20;99.90
14049;DHT22;7099;53.922;10.728;2022-12-24T03:19:07;5.20;99.90
14049;DHT22;7099;53.922;10.728;2022-12-24T03:23:13;5.20;99.90
14049;DHT22;7099;53.922;10.728;2022-12-24T03:27:19;5.20;99.90
14049;DHT22;7099;53.922;10.728;2022-12-24T03:31:24;5.20;99.90
14049;DHT22;7099;53.922;10.728;2022-12-24T03:35:30;5.20;99.90
14049;DHT22;7099;53.922;10.728;2022-12-24T03:39:36;5.20;99.90
14049;DHT22;7099;53.922;10.728;2022-12-24T03:43:41;5.30;99.90
14049;DHT22;7099;53.922;10.728;2022-12-24T03:47:47;5.20;99.90
14049;DHT22;7099;53.922;10.728;2022-12-24T03:51:52;5.30;99.90
14049;DHT22;7099;53.922;10.728;2022-12-24T03:55:58;5.30;99.90
14049;DHT22;7099;53.922;10.728;2022-12-24T04:00:05;5.20;99.90
14049;DHT22;7099;53.922;10.728;2022-12-24T04:04:11;5.20;99.90
14049;DHT22;7099;53.922;10.728;2022-12-24T04:08:16;5.20;99.90
14049;DHT22;7099;53.922;10.728;2022-12-24T04:12:22;5.20;99.90
14049;DHT22;7099;53.922;10.728;2022-12-24T04:16:27;5.30;99.90
14049;DHT22;7099;53.922;10.728;2022-12-24T04:20:33;5.20;99.90
14049;DHT22;7099;53.922;10.728;2022-12-24T04:24:38;5.20;99.90
14049;DHT22;7099;53.922;10.728;2022-12-24T04:28:44;5.20;99.90
14049;DHT22;7099;53.922;10.728;2022-12-24T04:32:49;5.20;99.90
14049;DHT22;7099;53.922;10.728;2022-12-24T04:36:55;5.20;99.90
14049;DHT22;7099;53.922;10.728;2022-12-24T04:41:12;5.20;99.90
14049;DHT22;7099;53.922;10.728;2022-12-24T04:45:28;5.20;99.90
14049;DHT22;7099;53.922;10.728;2022-12-24T04:49:33;5.20;99.90
14049;DHT22;7099;53.922;10.728;2022-12-24T04:53:39;5.20;99.90
14049;DHT22;7099;53.922;10.728;2022-12-24T04:57:45;5.20;99.90
14049;DHT22;7099;53.922;10.728;2022-12-24T05:01:57;5.20;99.90
14049;DHT22;7099;53.922;10.728;2022-12-24T05:06:05;5.20;99.90
14049;DHT22;7099;53.922;10.728;2022-12-24T05:10:15;5.20;99.90
14049;DHT22;7099;53.922;10.728;2022-12-24T05:14:20;5.20;99.90
14049;DHT22;7099;53.922;10.728;2022-12-24T05:18:26;5.10;99.90
14049;DHT22;7099;53.922;10.728;2022-12-24T05:22:31;5.10;99.90
14049;DHT22;7099;53.922;10.728;2022-12-24T05:26:56;5.10;99.90
14049;DHT22;7099;53.922;10.728;2022-12-24T05:31:03;5.10;99.90
14049;DHT22;7099;53.922;10.728;2022-12-24T05:35:08;5.10;99.90
14049;DHT22;7099;53.922;10.728;2022-12-24T05:39:16;5.10;99.90
14049;DHT22;7099;53.922;10.728;2022-12-24T05:43:22;5.10;99.90
14049;DHT22;7099;53.922;10.728;2022-12-24T05:47:27;5.10;99.90
14049;DHT22;7099;53.922;10.728;2022-12-24T05:51:33;5.10;99.90
14049;DHT22;7099;53.922;10.728;2022-12-24T05:55:38;5.10;99.90
14049;DHT22;7099;53.922;10.728;2022-12-24T05:59:44;5.10;99.90
14049;DHT22;7099;53.922;10.728;2022-12-24T06:03:50;5.10;99.90
14049;DHT22;7099;53.922;10.728;2022-12-24T06:07:57;5.10;99.90
14049;DHT22;7099;53.922;10.728;2022-12-24T06:12:02;5.00;99.90
14049;DHT22;7099;53.922;10.728;2022-12-24T06:16:11;5.00;99.90
14049;DHT22;7099;53.922;10.728;2022-12-24T06:20:18;5.00;99.90
14049;DHT22;7099;53.922;10.728;2022-12-24T06:24:23;5.00;99.90
14049;DHT22;7099;53.922;10.728;2022-12-24T06:28:31;5.00;99.90
14049;DHT22;7099;53.922;10.728;2022-12-24T06:32:37;5.00;99.90
14049;DHT22;7099;53.922;10.728;2022-12-24T06:36:43;4.90;99.90
14049;DHT22;7099;53.922;10.728;2022-12-24T06:40:48;4.90;99.90
14049;DHT22;7099;53.922;10.728;2022-12-24T06:44:54;4.90;99.90
14049;DHT22;7099;53.922;10.728;2022-12-24T06:48:59;5.00;99.90
14049;DHT22;7099;53.922;10.728;2022-12-24T06:53:05;4.90;99.90
14049;DHT22;7099;53.922;10.728;2022-12-24T06:57:11;4.90;99.90
14049;DHT22;7099;53.922;10.728;2022-12-24T07:01:18;4.90;99.90
14049;DHT22;7099;53.922;10.728;2022-12-24T07:05:25;4.90;99.90
14049;DHT22;7099;53.922;10.728;2022-12-24T07:09:30;4.90;99.90
14049;DHT22;7099;53.922;10.728;2022-12-24T07:13:36;4.90;99.90
14049;DHT22;7099;53.922;10.728;2022-12-24T07:17:41;4.90;99.90
14049;DHT22;7099;53.922;10.728;2022-12-24T07:21:47;4.90;99.90
14049;DHT22;7099;53.922;10.728;2022-12-24T07:25:54;4.90;99.90
14049;DHT22;7099;53.922;10.728;2022-12-24T07:29:59;4.90;99.90
14049;DHT22;7099;53.922;10.728;2022-12-24T07:34:05;4.90;99.90
14049;DHT22;7099;53.922;10.728;2022-12-24T07:38:10;4.90;99.90
14049;DHT22;7099;53.922;10.728;2022-12-24T07:42:16;4.90;99.90
14049;DHT22;7099;53.922;10.728;2022-12-24T07:46:21;4.90;99.90
14049;DHT22;7099;53.922;10.728;2022-12-24T07:50:27;4.90;99.90
14049;DHT22;7099;53.922;10.728;2022-12-24T07:54:33;4.90;99.90
14049;DHT22;7099;53.922;10.728;2022-12-24T07:58:38;4.90;99.90
14049;DHT22;7099;53.922;10.728;2022-12-24T08:02:44;4.90;99.90
14049;DHT22;7099;53.922;10.728;2022-12-24T08:06:50;4.90;99.90
14049;DHT22;7099;53.922;10.728;2022-12-24T08:11:00;4.90;99.90
14049;DHT22;7099;53.922;10.728;2022-12-24T08:15:07;4.90;99.90
14049;DHT22;7099;53.922;10.728;2022-12-24T08:19:13;4.90;99.90
14049;DHT22;7099;53.922;10.728;2022-12-24T08:23:19;4.90;99.90
14049;DHT22;7099;53.922;10.728;2022-12-24T08:27:24;4.90;99.90
14049;DHT22;7099;53.922;10.728;2022-12-24T08:31:30;4.90;99.90
14049;DHT22;7099;53.922;10.728;2022-12-24T08:35:40;4.90;99.90
14049;DHT22;7099;53.922;10.728;2022-12-24T08:39:51;4.90;99.90
14049;DHT22;7099;53.922;10.728;2022-12-24T08:43:57;4.90;99.90
14049;DHT22;7099;53.922;10.728;2022-12-24T08:48:03;4.90;99.90
14049;DHT22;7099;53.922;10.728;2022-12-24T08:52:08;5.00;99.90
14049;DHT22;7099;53.922;10.728;2022-12-24T08:56:14;5.00;99.90
14049;DHT22;7099;53.922;10.728;2022-12-24T09:00:19;4.90;99.90
14049;DHT22;7099;53.922;10.728;2022-12-24T09:04:25;5.00;99.90
14049;DHT22;7099;53.922;10.728;2022-12-24T09:08:31;5.00;99.90
14049;DHT22;7099;53.922;10.728;2022-12-24T09:12:37;5.00;99.90
14049;DHT22;7099;53.922;10.728;2022-12-24T09:16:43;5.00;99.90
14049;DHT22;7099;53.922;10.728;2022-12-24T09:20:48;5.00;99.90
14049;DHT22;7099;53.922;10.728;2022-12-24T09:25:01;5.10;99.90
14049;DHT22;7099;53.922;10.728;2022-12-24T09:29:09;5.10;99.90
14049;DHT22;7099;53.922;10.728;2022-12-24T09:33:15;5.10;99.90
14049;DHT22;7099;53.922;10.728;2022-12-24T09:37:21;5.10;99.90
14049;DHT22;7099;53.922;10.728;2022-12-24T09:50:33;5.20;99.90
14049;DHT22;7099;53.922;10.728;2022-12-24T09:54:50;5.30;99.90
14049;DHT22;7099;53.922;10.728;2022-12-24T09:59:17;5.30;99.90
14049;DHT22;7099;53.922;10.728;2022-12-24T10:03:25;5.30;99.90
14049;DHT22;7099;53.922;10.728;2022-12-24T10:08:01;5.40;99.90
14049;DHT22;7099;53.922;10.728;2022-12-24T10:12:59;5.40;99.90
14049;DHT22;7099;53.922;10.728;2022-12-24T10:26:00;5.40;99.90
14049;DHT22;7099;53.922;10.728;2022-12-24T10:30:19;5.50;99.90
14049;DHT22;7099;53.922;10.728;2022-12-24T10:34:29;5.40;99.90
14049;DHT22;7099;53.922;10.728;2022-12-24T10:38:38;5.50;99.90
14049;DHT22;7099;53.922;10.728;2022-12-24T10:42:43;5.50;99.90
14049;DHT22;7099;53.922;10.728;2022-12-24T10:46:55;5.50;99.90
14049;DHT22;7099;53.922;10.728;2022-12-24T10:51:18;5.50;99.90
14049;DHT22;7099;53.922;10.728;2022-12-24T10:55:24;5.50;99.90
14049;DHT22;7099;53.922;10.728;2022-12-24T11:03:43;5.50;99.90
14049;DHT22;7099;53.922;10.728;2022-12-24T11:08:02;5.60;99.90
14049;DHT22;7099;53.922;10.728;2022-12-24T11:12:22;5.60;99.90
14049;DHT22;7099;53.922;10.728;2022-12-24T11:16:34;5.60;99.90
14049;DHT22;7099;53.922;10.728;2022-12-24T11:20:40;5.60;99.90
14049;DHT22;7099;53.922;10.728;2022-12-24T11:25:05;5.60;99.90
14049;DHT22;7099;53.922;10.728;2022-12-24T11:29:26;5.70;99.90
14049;DHT22;7099;53.922;10.728;2022-12-24T11:33:49;5.70;99.90
14049;DHT22;7099;53.922;10.728;2022-12-24T11:42:05;5.80;99.90
14049;DHT22;7099;53.922;10.728;2022-12-24T11:50:32;5.80;99.90
14049;DHT22;7099;53.922;10.728;2022-12-24T11:54:49;5.80;99.90
14049;DHT22;7099;53.922;10.728;2022-12-24T11:59:40;5.80;99.90
14049;DHT22;7099;53.922;10.728;2022-12-24T12:03:50;5.90;99.90
14049;DHT22;7099;53.922;10.728;2022-12-24T12:08:19;5.80;99.90
14049;DHT22;7099;53.922;10.728;2022-12-24T12:12:28;5.90;99.90
14049;DHT22;7099;53.922;10.728;2022-12-24T12:21:21;5.90;99.90
14049;DHT22;7099;53.922;10.728;2022-12-24T12:30:16;5.90;99.90
14049;DHT22;7099;53.922;10.728;2022-12-24T12:34:30;5.90;99.90
14049;DHT22;7099;53.922;10.728;2022-12-24T12:38:39;5.90;99.90
14049;DHT22;7099;53.922;10.728;2022-12-24T12:42:55;5.90;99.90
14049;DHT22;7099;53.922;10.728;2022-12-24T12:52:34;5.90;99.90
14049;DHT22;7099;53.922;10.728;2022-12-24T12:56:48;6.00;99.90
14049;DHT22;7099;53.922;10.728;2022-12-24T13:10:10;6.00;99.90
14049;DHT22;7099;53.922;10.728;2022-12-24T13:14:42;6.00;99.90
14049;DHT22;7099;53.922;10.728;2022-12-24T13:19:14;6.00;99.90
14049;DHT22;7099;53.922;10.728;2022-12-24T13:23:28;6.00;99.90
14049;DHT22;7099;53.922;10.728;2022-12-24T13:27:34;6.00;99.90
14049;DHT22;7099;53.922;10.728;2022-12-24T13:31:40;6.00;99.90
14049;DHT22;7099;53.922;10.728;2022-12-24T13:36:00;6.00;99.90
14049;DHT22;7099;53.922;10.728;2022-12-24T13:44:20;6.10;99.90
14049;DHT22;7099;53.922;10.728;2022-12-24T13:48:30;6.10;99.90
14049;DHT22;7099;53.922;10.728;2022-12-24T13:52:37;6.10;99.90
14049;DHT22;7099;53.922;10.728;2022-12-24T13:56:47;6.10;99.90
14049;DHT22;7099;53.922;10.728;2022-12-24T14:00:59;6.10;99.90
14049;DHT22;7099;53.922;10.728;2022-12-24T14:05:16;6.10;99.90
14049;DHT22;7099;53.922;10.728;2022-12-24T14:09:27;6.20;99.90
14049;DHT22;7099;53.922;10.728;2022-12-24T14:17:47;6.20;99.90
14049;DHT22;7099;53.922;10.728;2022-12-24T14:22:01;6.20;99.90
14049;DHT22;7099;53.922;10.728;2022-12-24T14:26:26;6.20;99.90
14049;DHT22;7099;53.922;10.728;2022-12-24T14:30:33;6.20;99.90
14049;DHT22;7099;53.922;10.728;2022-12-24T14:34:38;6.10;99.90
14049;DHT22;7099;53.922;10.728;2022-12-24T14:38:44;6.20;99.90
14049;DHT22;7099;53.922;10.728;2022-12-24T14:43:24;6.20;99.90
14049;DHT22;7099;53.922;10.728;2022-12-24T14:56:33;6.20;99.90
14049;DHT22;7099;53.922;10.728;2022-12-24T15:00:41;6.20;99.90
14049;DHT22;7099;53.922;10.728;2022-12-24T15:09:36;6.20;99.90
14049;DHT22;7099;53.922;10.728;2022-12-24T15:13:50;6.20;99.90
14049;DHT22;7099;53.922;10.728;2022-12-24T15:17:58;6.20;99.90
14049;DHT22;7099;53.922;10.728;2022-12-24T15:22:15;6.20;99.90
14049;DHT22;7099;53.922;10.728;2022-12-24T15:26:30;6.20;99.90
14049;DHT22;7099;53.922;10.728;2022-12-24T15:30:40;6.20;99.90
14049;DHT22;7099;53.922;10.728;2022-12-24T15:34:48;6.20;99.90
14049;DHT22;7099;53.922;10.728;2022-12-24T15:38:56;6.20;99.90
14049;DHT22;7099;53.922;10.728;2022-12-24T15:43:05;6.20;99.90
14049;DHT22;7099;53.922;10.728;2022-12-24T15:47:37;6.20;99.90
14049;DHT22;7099;53.922;10.728;2022-12-24T15:51:46;6.30;99.90
14049;DHT22;7099;53.922;10.728;2022-12-24T15:56:08;6.20;99.90
14049;DHT22;7099;53.922;10.728;2022-12-24T16:00:24;6.30;99.90
14049;DHT22;7099;53.922;10.728;2022-12-24T16:04:36;6.30;99.90
14049;DHT22;7099;53.922;10.728;2022-12-24T16:08:43;6.20;99.90
14049;DHT22;7099;53.922;10.728;2022-12-24T16:12:49;6.30;99.90
14049;DHT22;7099;53.922;10.728;2022-12-24T16:16:55;6.20;99.90
14049;DHT22;7099;53.922;10.728;2022-12-24T16:21:04;6.20;99.90
14049;DHT22;7099;53.922;10.728;2022-12-24T16:25:24;6.30;99.90
14049;DHT22;7099;53.922;10.728;2022-12-24T16:29:32;6.30;99.90
14049;DHT22;7099;53.922;10.728;2022-12-24T16:33:37;6.30;99.90
14049;DHT22;7099;53.922;10.728;2022-12-24T16:37:43;6.30;99.90
14049;DHT22;7099;53.922;10.728;2022-12-24T16:41:53;6.30;99.90
14049;DHT22;7099;53.922;10.728;2022-12-24T16:46:19;6.30;99.90
14049;DHT22;7099;53.922;10.728;2022-12-24T16:50:25;6.30;99.90
14049;DHT22;7099;53.922;10.728;2022-12-24T16:54:31;6.30;99.90
14049;DHT22;7099;53.922;10.728;2022-12-24T16:58:36;6.30;99.90
14049;DHT22;7099;53.922;10.728;2022-12-24T17:02:42;6.30;99.90
14049;DHT22;7099;53.922;10.728;2022-12-24T17:06:48;6.30;99.90
14049;DHT22;7099;53.922;10.728;2022-12-24T17:10:54;6.30;99.90
14049;DHT22;7099;53.922;10.728;2022-12-24T17:15:00;6.30;99.90
14049;DHT22;7099;53.922;10.728;2022-12-24T17:19:05;6.30;99.90
14049;DHT22;7099;53.922;10.728;2022-12-24T17:23:11;6.30;99.90
14049;DHT22;7099;53.922;10.728;2022-12-24T17:27:16;6.30;99.90
14049;DHT22;7099;53.922;10.728;2022-12-24T17:31:23;6.30;99.90
14049;DHT22;7099;53.922;10.728;2022-12-24T17:35:29;6.40;99.90
14049;DHT22;7099;53.922;10.728;2022-12-24T17:39:34;6.40;99.90
14049;DHT22;7099;53.922;10.728;2022-12-24T17:43:40;6.40;99.90
14049;DHT22;7099;53.922;10.728;2022-12-24T17:47:46;6.30;99.90
14049;DHT22;7099;53.922;10.728;2022-12-24T17:51:51;6.30;99.90
14049;DHT22;7099;53.922;10.728;2022-12-24T17:55:57;6.30;99.90
14049;DHT22;7099;53.922;10.728;2022-12-24T18:00:03;6.30;99.90
14049;DHT22;7099;53.922;10.728;2022-12-24T18:04:09;6.30;99.90
14049;DHT22;7099;53.922;10.728;2022-12-24T18:08:15;6.40;99.90
14049;DHT22;7099;53.922;10.728;2022-12-24T18:12:20;6.40;99.90
14049;DHT22;7099;53.922;10.728;2022-12-24T18:16:32;6.40;99.90
14049;DHT22;7099;53.922;10.728;2022-12-24T18:20:42;6.40;99.90
14049;DHT22;7099;53.922;10.728;2022-12-24T18:24:51;6.40;99.90
14049;DHT22;7099;53.922;10.728;2022-12-24T18:28:58;6.40;99.90
14049;DHT22;7099;53.922;10.728;2022-12-24T18:33:05;6.40;99.90
14049;DHT22;7099;53.922;10.728;2022-12-24T18:37:10;6.40;99.90
14049;DHT22;7099;53.922;10.728;2022-12-24T18:41:18;6.50;99.90
14049;DHT22;7099;53.922;10.728;2022-12-24T18:45:29;6.50;99.90
14049;DHT22;7099;53.922;10.728;2022-12-24T18:49:37;6.50;99.90
14049;DHT22;7099;53.922;10.728;2022-12-24T18:53:43;6.50;99.90
14049;DHT22;7099;53.922;10.728;2022-12-24T18:57:49;6.60;99.90
14049;DHT22;7099;53.922;10.728;2022-12-24T19:01:54;6.60;99.90
14049;DHT22;7099;53.922;10.728;2022-12-24T19:06:00;6.60;99.90
14049;DHT22;7099;53.922;10.728;2022-12-24T19:10:07;6.70;99.90
14049;DHT22;7099;53.922;10.728;2022-12-24T19:14:13;6.70;99.90
14049;DHT22;7099;53.922;10.728;2022-12-24T19:18:19;6.70;99.90
14049;DHT22;7099;53.922;10.728;2022-12-24T19:22:25;6.80;99.90
14049;DHT22;7099;53.922;10.728;2022-12-24T19:26:31;6.80;99.90
14049;DHT22;7099;53.922;10.728;2022-12-24T19:30:40;6.80;99.90
14049;DHT22;7099;53.922;10.728;2022-12-24T19:34:48;6.90;99.90
14049;DHT22;7099;53.922;10.728;2022-12-24T19:38:55;6.90;99.90
14049;DHT22;7099;53.922;10.728;2022-12-24T19:43:01;6.90;99.90
14049;DHT22;7099;53.922;10.728;2022-12-24T19:47:07;7.00;99.90
14049;DHT22;7099;53.922;10.728;2022-12-24T19:51:13;7.00;99.90
14049;DHT22;7099;53.922;10.728;2022-12-24T19:55:18;7.00;99.90
14049;DHT22;7099;53.922;10.728;2022-12-24T19:59:24;7.10;99.90
14049;DHT22;7099;53.922;10.728;2022-12-24T20:03:30;7.10;99.90
14049;DHT22;7099;53.922;10.728;2022-12-24T20:07:38;7.10;99.90
14049;DHT22;7099;53.922;10.728;2022-12-24T20:11:44;7.20;99.90
14049;DHT22;7099;53.922;10.728;2022-12-24T20:15:50;7.20;99.90
14049;DHT22;7099;53.922;10.728;2022-12-24T20:19:56;7.20;99.90
14049;DHT22;7099;53.922;10.728;2022-12-24T20:24:02;7.30;99.90
14049;DHT22;7099;53.922;10.728;2022-12-24T20:28:08;7.30;99.90
14049;DHT22;7099;53.922;10.728;2022-12-24T20:32:14;7.30;99.90
14049;DHT22;7099;53.922;10.728;2022-12-24T20:36:22;7.20;99.90
14049;DHT22;7099;53.922;10.728;2022-12-24T20:40:28;7.30;99.90
14049;DHT22;7099;53.922;10.728;2022-12-24T20:44:34;7.30;99.90
14049;DHT22;7099;53.922;10.728;2022-12-24T20:48:40;7.30;99.90
14049;DHT22;7099;53.922;10.728;2022-12-24T20:52:46;7.30;99.90
14049;DHT22;7099;53.922;10.728;2022-12-24T20:56:52;7.30;99.90
14049;DHT22;7099;53.922;10.728;2022-12-24T21:01:17;7.30;99.90
14049;DHT22;7099;53.922;10.728;2022-12-24T21:05:24;7.30;99.90
14049;DHT22;7099;53.922;10.728;2022-12-24T21:09:30;7.30;99.90
14049;DHT22;7099;53.922;10.728;2022-12-24T21:13:36;7.30;99.90
14049;DHT22;7099;53.922;10.728;2022-12-24T21:17:41;7.30;99.90
14049;DHT22;7099;53.922;10.728;2022-12-24T21:21:48;7.30;99.90
14049;DHT22;7099;53.922;10.728;2022-12-24T21:26:02;7.30;99.90
14049;DHT22;7099;53.922;10.728;2022-12-24T21:30:09;7.30;99.90
14049;DHT22;7099;53.922;10.728;2022-12-24T21:34:15;7.30;99.90
14049;DHT22;7099;53.922;10.728;2022-12-24T21:38:21;7.30;99.90
14049;DHT22;7099;53.922;10.728;2022-12-24T21:42:27;7.40;99.90
14049;DHT22;7099;53.922;10.728;2022-12-24T21:46:32;7.40;99.90
14049;DHT22;7099;53.922;10.728;2022-12-24T21:50:38;7.30;99.90
14049;DHT22;7099;53.922;10.728;2022-12-24T21:55:01;7.40;99.90
14049;DHT22;7099;53.922;10.728;2022-12-24T21:59:07;7.30;99.90
14049;DHT22;7099;53.922;10.728;2022-12-24T22:03:13;7.40;99.90
14049;DHT22;7099;53.922;10.728;2022-12-24T22:07:25;7.40;99.90
14049;DHT22;7099;53.922;10.728;2022-12-24T22:11:50;7.40;99.90
14049;DHT22;7099;53.922;10.728;2022-12-24T22:15:59;7.40;99.90
14049;DHT22;7099;53.922;10.728;2022-12-24T22:20:05;7.40;99.90
14049;DHT22;7099;53.922;10.728;2022-12-24T22:24:11;7.30;99.90
14049;DHT22;7099;53.922;10.728;2022-12-24T22:28:17;7.30;99.90
14049;DHT22;7099;53.922;10.728;2022-12-24T22:32:23;7.40;99.90
14049;DHT22;7099;53.922;10.728;2022-12-24T22:36:29;7.40;99.90
14049;DHT22;7099;53.922;10.728;2022-12-24T22:40:38;7.40;99.90
14049;DHT22;7099;53.922;10.728;2022-12-24T22:44:46;7.50;99.90
14049;DHT22;7099;53.922;10.728;2022-12-24T22:48:52;7.50;99.90
14049;DHT22;7099;53.922;10.728;2022-12-24T22:52:58;7.50;99.90
14049;DHT22;7099;53.922;10.728;2022-12-24T22:57:03;7.60;99.90
14049;DHT22;7099;53.922;10.728;2022-12-24T23:01:09;7.60;99.90
14049;DHT22;7099;53.922;10.728;2022-12-24T23:05:16;7.60;99.90
14049;DHT22;7099;53.922;10.728;2022-12-24T23:09:21;7.60;99.90
14049;DHT22;7099;53.922;10.728;2022-12-24T23:13:27;7.60;99.90
14049;DHT22;7099;53.922;10.728;2022-12-24T23:17:51;7.60;99.90
14049;DHT22;7099;53.922;10.728;2022-12-24T23:21:56;7.60;99.90
14049;DHT22;7099;53.922;10.728;2022-12-24T23:26:08;7.60;99.90
14049;DHT22;7099;53.922;10.728;2022-12-24T23:30:15;7.60;99.90
14049;DHT22;7099;53.922;10.728;2022-12-24T23:34:20;7.60;99.90
14049;DHT22;7099;53.922;10.728;2022-12-24T23:38:26;7.50;99.90
14049;DHT22;7099;53.922;10.728;2022-12-24T23:42:32;7.50;99.90
14049;DHT22;7099;53.922;10.728;2022-12-24T23:46:37;7.40;99.90
14049;DHT22;7099;53.922;10.728;2022-12-24T23:50:44;7.40;99.90
14049;DHT22;7099;53.922;10.728;2022-12-24T23:54:50;7.30;99.90
14049;DHT22;7099;53.922;10.728;2022-12-24T23:58:55;7.30;99.90
